Time;durP1;ratioP1;P1;durP2;ratioP2;P2;SDS_P1;SDS_P2;PMS_P1;PMS_P2;Temp;Humidity;BMP_temperature;BMP_pressure;BME280_temperature;BME280_humidity;BME280_pressure;Samples;Min_cycle;Max_cycle;Signal;HPM_P1;HPM_P2
2023/09/04 00:00:58;;;;;;;26.20;23.40;;;15.50;99.90;;;;;;4925104;29;20131;-65
2023/09/04 00:03:25;;;;;;;26.27;21.90;;;15.40;99.90;;;;;;4925440;29;20095;-65
2023/09/04 00:05:51;;;;;;;25.52;21.88;;;15.30;99.90;;;;;;4893487;29;20150;-66
2023/09/04 00:08:17;;;;;;;23.27;19.70;;;15.30;99.90;;;;;;4925577;29;20083;-66
2023/09/04 00:10:44;;;;;;;22.48;20.13;;;15.30;99.90;;;;;;4910317;29;20054;-66
2023/09/04 00:13:09;;;;;;;24.08;20.73;;;15.30;99.90;;;;;;4925354;29;20040;-66
2023/09/04 00:15:35;;;;;;;26.25;22.20;;;15.10;99.90;;;;;;4907880;29;20178;-66
2023/09/04 00:18:01;;;;;;;25.58;21.70;;;15.10;99.90;;;;;;4924650;29;20043;-65
2023/09/04 00:20:26;;;;;;;23.15;20.23;;;14.90;99.90;;;;;;4909394;29;20142;-65
2023/09/04 00:22:52;;;;;;;23.88;20.15;;;14.70;99.90;;;;;;4910739;29;20126;-65
2023/09/04 00:25:18;;;;;;;27.80;22.20;;;14.60;99.90;;;;;;4924484;29;20060;-66
2023/09/04 00:27:44;;;;;;;24.83;21.45;;;14.50;99.90;;;;;;4925070;29;20039;-66
2023/09/04 00:30:10;;;;;;;26.15;21.35;;;14.60;99.90;;;;;;4924687;29;20067;-66
2023/09/04 00:32:35;;;;;;;26.80;22.23;;;14.40;99.90;;;;;;4907424;29;20040;-64
2023/09/04 00:35:01;;;;;;;28.40;23.75;;;14.40;99.90;;;;;;4900459;29;20063;-65
2023/09/04 00:37:27;;;;;;;27.92;22.92;;;14.30;99.90;;;;;;4898304;29;20056;-66
2023/09/04 00:39:52;;;;;;;27.65;23.92;;;14.20;99.90;;;;;;4897980;29;20086;-65
2023/09/04 00:42:18;;;;;;;28.92;24.90;;;14.10;99.90;;;;;;4915485;29;20650;-66
2023/09/04 00:44:46;;;;;;;48.10;37.80;;;14.00;99.90;;;;;;4897497;29;20138;-65
2023/09/04 00:47:14;;;;;;;48.75;37.35;;;14.10;99.90;;;;;;4913315;29;20050;-64
2023/09/04 00:49:41;;;;;;;42.33;34.47;;;14.10;99.90;;;;;;4911693;29;20322;-65
2023/09/04 00:52:07;;;;;;;47.63;35.63;;;14.30;99.90;;;;;;4926301;29;20079;-64
2023/09/04 00:54:34;;;;;;;45.10;34.92;;;14.10;99.90;;;;;;4925193;29;20463;-65
2023/09/04 00:57:03;;;;;;;51.08;38.75;;;14.10;99.90;;;;;;4924751;29;20058;-65
2023/09/04 00:59:29;;;;;;;51.22;36.88;;;14.20;99.90;;;;;;4925248;29;20036;-64
2023/09/04 01:01:59;;;;;;;50.20;37.90;;;14.10;99.90;;;;;;4917668;29;20163;-64
2023/09/04 01:04:25;;;;;;;53.38;39.72;;;14.10;99.90;;;;;;4898873;29;20043;-63
2023/09/04 01:06:53;;;;;;;46.47;36.75;;;14.10;99.90;;;;;;4912928;29;20035;-64
2023/09/04 01:09:20;;;;;;;54.42;38.33;;;14.20;99.90;;;;;;4912283;29;20043;-63
2023/09/04 01:12:09;;;;;;;53.17;37.17;;;14.10;99.90;;;;;;4913076;29;20415;-64
2023/09/04 01:14:36;;;;;;;44.78;34.60;;;13.90;99.90;;;;;;4912465;29;20079;-64
2023/09/04 01:17:03;;;;;;;52.00;38.33;;;14.00;99.90;;;;;;4912841;29;20119;-64
2023/09/04 01:19:29;;;;;;;50.53;37.35;;;13.80;99.90;;;;;;4912275;29;20319;-65
2023/09/04 01:21:55;;;;;;;45.17;34.78;;;13.70;99.90;;;;;;4913183;29;20079;-65
2023/09/04 01:24:20;;;;;;;39.53;31.83;;;13.90;99.90;;;;;;4896893;29;20206;-65
2023/09/04 01:27:21;;;;;;;43.40;32.70;;;13.90;99.90;;;;;;4912111;29;20062;-64
2023/09/04 01:30:05;;;;;;;46.33;34.53;;;13.60;99.90;;;;;;4899637;28;20052;-63
2023/09/04 01:32:38;;;;;;;48.95;33.45;;;13.70;99.90;;;;;;4929614;28;20044;-64
2023/09/04 01:35:07;;;;;;;36.72;30.15;;;13.80;99.90;;;;;;4911271;29;20032;-64
2023/09/04 01:37:34;;;;;;;43.17;32.15;;;13.70;99.90;;;;;;4912155;29;20325;-64
2023/09/04 01:40:01;;;;;;;38.33;32.63;;;13.50;99.90;;;;;;4913744;29;20054;-64
2023/09/04 01:42:27;;;;;;;47.17;34.70;;;13.60;99.90;;;;;;4912862;29;20110;-64
2023/09/04 01:44:52;;;;;;;40.67;31.90;;;13.50;99.90;;;;;;4887751;29;20050;-64
2023/09/04 01:47:18;;;;;;;45.05;34.60;;;13.50;99.90;;;;;;4918803;29;20035;-64
2023/09/04 01:49:44;;;;;;;41.25;32.00;;;13.60;99.90;;;;;;4916211;29;20043;-64
2023/09/04 01:52:09;;;;;;;44.83;34.30;;;13.40;99.90;;;;;;4916742;29;21036;-64
2023/09/04 01:54:36;;;;;;;43.42;33.75;;;13.60;99.90;;;;;;4918047;29;20123;-65
2023/09/04 01:57:02;;;;;;;37.25;30.27;;;13.40;99.90;;;;;;4916410;29;20647;-64
2023/09/04 01:59:27;;;;;;;41.33;31.80;;;13.40;99.90;;;;;;4903824;29;20051;-64
2023/09/04 02:01:53;;;;;;;40.42;32.78;;;13.50;99.90;;;;;;4916383;29;21148;-64
2023/09/04 02:04:19;;;;;;;35.35;30.95;;;13.30;99.90;;;;;;4917083;29;20976;-65
2023/09/04 02:06:44;;;;;;;40.25;32.90;;;13.40;99.90;;;;;;4918014;29;20044;-64
2023/09/04 02:09:10;;;;;;;38.38;32.78;;;13.50;99.90;;;;;;4916360;29;20039;-64
2023/09/04 02:11:36;;;;;;;46.72;33.60;;;13.30;99.90;;;;;;4917196;29;20367;-64
2023/09/04 02:14:01;;;;;;;37.50;31.67;;;13.50;99.90;;;;;;4917978;29;20510;-64
2023/09/04 02:16:27;;;;;;;37.67;31.45;;;13.30;99.90;;;;;;4916132;29;20051;-64
2023/09/04 02:18:55;;;;;;;40.72;32.15;;;13.40;99.90;;;;;;4916078;29;20454;-64
2023/09/04 02:21:20;;;;;;;42.03;31.48;;;13.40;99.90;;;;;;4916970;29;20358;-63
2023/09/04 02:23:46;;;;;;;38.75;32.00;;;13.30;99.90;;;;;;4915515;29;20035;-63
2023/09/04 02:26:12;;;;;;;38.83;31.23;;;13.20;99.90;;;;;;4917752;29;20048;-64
2023/09/04 02:28:39;;;;;;;39.33;30.48;;;13.30;99.90;;;;;;4916446;29;20154;-64
2023/09/04 02:31:08;;;;;;;38.28;30.65;;;13.10;99.90;;;;;;4916495;29;20317;-65
2023/09/04 02:33:34;;;;;;;35.65;29.77;;;13.10;99.90;;;;;;4917432;29;20406;-64
2023/09/04 02:36:00;;;;;;;40.72;31.63;;;12.90;99.90;;;;;;4915588;29;20039;-64
2023/09/04 02:38:26;;;;;;;40.92;31.15;;;13.00;99.90;;;;;;4900000;29;20094;-66
2023/09/04 02:40:52;;;;;;;41.28;32.30;;;13.10;99.90;;;;;;4917871;29;20556;-65
2023/09/04 02:43:17;;;;;;;40.10;31.50;;;13.00;99.90;;;;;;4916296;29;20042;-65
2023/09/04 02:45:45;;;;;;;38.65;31.50;;;13.00;99.90;;;;;;4917115;29;20194;-64
2023/09/04 02:48:10;;;;;;;35.47;29.52;;;13.10;99.90;;;;;;4916968;29;20131;-65
2023/09/04 02:50:36;;;;;;;37.60;30.33;;;12.90;99.90;;;;;;4914904;29;20058;-66
2023/09/04 02:53:02;;;;;;;38.15;29.63;;;13.00;99.90;;;;;;4915697;29;20047;-66
2023/09/04 02:55:28;;;;;;;34.28;28.02;;;13.00;99.90;;;;;;4916985;29;20047;-66
2023/09/04 02:57:53;;;;;;;37.35;28.48;;;12.90;99.90;;;;;;4915072;29;20502;-66
2023/09/04 03:00:19;;;;;;;35.67;28.33;;;12.90;99.90;;;;;;4915694;29;20059;-66
2023/09/04 03:02:45;;;;;;;31.02;25.75;;;13.00;99.90;;;;;;4915538;29;20159;-66
2023/09/04 03:05:11;;;;;;;33.60;28.10;;;12.90;99.90;;;;;;4916324;29;20447;-65
2023/09/04 03:07:37;;;;;;;32.00;27.63;;;12.70;99.90;;;;;;4900800;29;20132;-65
2023/09/04 03:10:03;;;;;;;32.25;27.35;;;12.70;99.90;;;;;;4916371;29;20432;-66
2023/09/04 03:12:32;;;;;;;31.73;26.17;;;12.90;99.90;;;;;;4899162;29;20043;-66
2023/09/04 03:15:03;;;;;;;32.20;27.45;;;12.80;99.90;;;;;;4915452;29;20221;-64
2023/09/04 03:17:30;;;;;;;29.67;25.23;;;12.60;99.90;;;;;;4915285;29;20536;-64
2023/09/04 03:19:57;;;;;;;31.08;25.98;;;12.60;99.90;;;;;;4898284;29;20043;-65
2023/09/04 03:22:24;;;;;;;31.90;26.70;;;12.60;99.90;;;;;;4915405;29;20134;-64
2023/09/04 03:24:50;;;;;;;37.63;28.80;;;12.60;99.90;;;;;;4919261;29;20627;-64
2023/09/04 03:27:17;;;;;;;33.90;27.58;;;12.70;99.90;;;;;;4899000;29;20158;-64
2023/09/04 03:29:43;;;;;;;34.38;26.27;;;12.70;99.90;;;;;;4914630;29;20131;-64
2023/09/04 03:32:09;;;;;;;31.88;25.65;;;12.60;99.90;;;;;;4914548;29;20035;-65
2023/09/04 03:34:36;;;;;;;30.15;25.52;;;12.60;99.90;;;;;;4916460;29;20418;-64
2023/09/04 03:37:02;;;;;;;38.75;29.77;;;12.40;99.90;;;;;;4932420;28;20330;-64
2023/09/04 03:39:28;;;;;;;34.47;29.17;;;12.60;99.90;;;;;;4898638;29;20316;-64
2023/09/04 03:41:54;;;;;;;34.78;27.80;;;12.60;99.90;;;;;;4914041;29;20094;-64
2023/09/04 03:44:19;;;;;;;35.45;28.00;;;12.50;99.90;;;;;;4914746;29;20063;-64
2023/09/04 03:46:45;;;;;;;35.53;28.40;;;12.40;99.90;;;;;;4914454;29;20548;-65
2023/09/04 03:49:12;;;;;;;31.50;26.77;;;12.60;99.90;;;;;;4898610;29;20047;-64
2023/09/04 03:51:38;;;;;;;37.97;28.90;;;12.60;99.90;;;;;;4918494;29;20058;-65
2023/09/04 03:54:04;;;;;;;35.20;28.25;;;12.60;99.90;;;;;;4914152;29;20055;-65
2023/09/04 03:56:31;;;;;;;37.80;28.55;;;12.60;99.90;;;;;;4898934;29;20048;-65
2023/09/04 03:58:59;;;;;;;35.47;27.73;;;12.30;99.90;;;;;;4914526;29;20047;-65
2023/09/04 04:01:27;;;;;;;33.95;27.98;;;12.40;99.90;;;;;;4914054;29;20087;-65
2023/09/04 04:03:55;;;;;;;38.58;29.08;;;12.50;99.90;;;;;;4916427;29;20043;-65
2023/09/04 04:06:22;;;;;;;36.78;28.45;;;12.40;99.90;;;;;;4916798;29;20272;-66
2023/09/04 04:08:50;;;;;;;32.95;27.35;;;12.30;99.90;;;;;;4898208;29;20297;-65
2023/09/04 04:11:15;;;;;;;34.00;27.83;;;12.30;99.90;;;;;;4913609;29;20450;-65
2023/09/04 04:13:41;;;;;;;32.85;26.70;;;12.40;99.90;;;;;;4914217;29;20522;-65
2023/09/04 04:16:07;;;;;;;36.00;28.58;;;12.40;99.90;;;;;;4914793;29;20690;-66
2023/09/04 04:18:33;;;;;;;37.15;29.58;;;12.40;99.90;;;;;;4897706;29;21147;-64
2023/09/04 04:20:59;;;;;;;36.25;28.85;;;12.30;99.90;;;;;;4929372;28;20075;-64
2023/09/04 04:23:25;;;;;;;34.58;28.13;;;12.20;99.90;;;;;;4897939;29;20214;-64
2023/09/04 04:25:51;;;;;;;36.92;28.67;;;12.20;99.90;;;;;;4915469;29;20055;-64
2023/09/04 04:28:21;;;;;;;39.55;28.95;;;12.20;99.90;;;;;;4897754;29;20479;-64
2023/09/04 04:30:47;;;;;;;36.65;29.60;;;12.20;99.90;;;;;;4882367;29;20047;-64
2023/09/04 04:33:13;;;;;;;39.25;30.42;;;12.20;99.90;;;;;;4915180;29;20107;-64
2023/09/04 04:35:42;;;;;;;36.80;28.67;;;12.20;99.90;;;;;;4897736;29;20260;-65
2023/09/04 04:38:08;;;;;;;33.85;27.33;;;12.30;99.90;;;;;;4913453;29;20772;-65
2023/09/04 04:40:35;;;;;;;39.38;29.25;;;12.10;99.90;;;;;;4915073;29;20227;-65
2023/09/04 04:43:01;;;;;;;32.58;27.55;;;12.10;99.90;;;;;;4912837;29;20280;-65
2023/09/04 04:45:27;;;;;;;36.83;28.63;;;12.00;99.90;;;;;;4897198;29;20214;-65
2023/09/04 04:47:52;;;;;;;34.58;28.17;;;12.00;99.90;;;;;;4915393;29;20165;-65
2023/09/04 04:50:18;;;;;;;39.90;30.27;;;12.10;99.90;;;;;;4897557;29;20507;-65
2023/09/04 04:52:44;;;;;;;39.67;28.92;;;12.00;99.90;;;;;;4913815;29;20496;-65
2023/09/04 04:55:09;;;;;;;39.88;29.02;;;12.00;99.90;;;;;;4898537;29;20048;-64
2023/09/04 04:57:35;;;;;;;34.28;27.80;;;12.10;99.90;;;;;;4897504;29;20773;-64
2023/09/04 05:00:06;;;;;;;42.53;30.10;;;12.10;99.90;;;;;;4913108;29;20050;-65
2023/09/04 05:02:33;;;;;;;40.08;30.30;;;12.10;99.90;;;;;;4915523;29;20099;-64
2023/09/04 05:04:58;;;;;;;40.63;30.60;;;12.20;99.90;;;;;;4896982;29;20273;-65
2023/09/04 05:07:24;;;;;;;37.97;28.75;;;12.20;99.90;;;;;;4913059;29;20042;-66
2023/09/04 05:09:53;;;;;;;40.33;31.77;;;12.10;99.90;;;;;;4880945;29;20048;-66
2023/09/04 05:12:19;;;;;;;42.40;31.20;;;12.10;99.90;;;;;;4913785;29;20142;-66
2023/09/04 05:14:45;;;;;;;43.13;31.52;;;12.30;99.90;;;;;;4914057;29;20465;-65
2023/09/04 05:17:11;;;;;;;35.97;28.73;;;12.20;99.90;;;;;;4897087;29;20044;-65
2023/09/04 05:19:36;;;;;;;40.40;30.17;;;12.40;99.90;;;;;;4913204;29;20062;-65
2023/09/04 05:22:02;;;;;;;37.30;29.35;;;12.30;99.90;;;;;;4912147;29;20450;-65
2023/09/04 05:24:28;;;;;;;34.00;28.40;;;12.40;99.90;;;;;;4880844;29;20185;-65
2023/09/04 05:26:54;;;;;;;34.08;28.65;;;12.60;99.90;;;;;;4914290;29;20075;-65
2023/09/04 05:29:20;;;;;;;34.67;28.92;;;12.50;99.90;;;;;;4914426;29;20039;-64
2023/09/04 05:31:49;;;;;;;36.63;29.35;;;12.50;99.90;;;;;;4896815;29;20055;-65
2023/09/04 05:34:14;;;;;;;35.42;27.73;;;12.60;99.90;;;;;;4914036;29;20074;-65
2023/09/04 05:36:40;;;;;;;39.78;28.60;;;12.50;99.90;;;;;;4898419;29;20358;-66
2023/09/04 05:39:06;;;;;;;35.65;29.02;;;12.70;99.90;;;;;;4881554;29;20908;-65
2023/09/04 05:41:32;;;;;;;35.40;29.50;;;12.70;99.90;;;;;;4897589;29;20051;-66
2023/09/04 05:43:57;;;;;;;33.58;28.45;;;12.80;99.90;;;;;;4881503;29;20051;-65
2023/09/04 05:46:23;;;;;;;32.35;27.30;;;13.30;99.90;;;;;;4913540;29;20039;-65
2023/09/04 05:48:48;;;;;;;26.80;23.90;;;13.30;99.90;;;;;;4915048;29;20040;-65
2023/09/04 05:51:14;;;;;;;23.10;20.80;;;13.90;99.90;;;;;;4898337;29;20055;-66
2023/09/04 05:53:40;;;;;;;21.52;17.38;;;14.20;99.90;;;;;;4897904;29;20047;-64
2023/09/04 05:56:09;;;;;;;17.55;15.95;;;14.80;99.90;;;;;;4914877;29;20044;-65
2023/09/04 05:58:47;;;;;;;15.88;14.38;;;15.20;99.90;;;;;;4913030;29;20652;-64
2023/09/04 06:01:13;;;;;;;13.63;12.15;;;15.40;99.90;;;;;;4897159;29;20055;-64
2023/09/04 06:03:40;;;;;;;12.65;11.45;;;15.80;99.90;;;;;;4914627;29;20044;-64
2023/09/04 06:06:06;;;;;;;12.35;10.52;;;16.20;99.90;;;;;;4911294;29;20040;-64
2023/09/04 06:08:33;;;;;;;11.85;10.60;;;16.40;99.90;;;;;;4913550;29;20115;-65
2023/09/04 06:10:59;;;;;;;11.13;10.02;;;16.80;99.90;;;;;;4912658;29;20452;-65
2023/09/04 06:13:25;;;;;;;11.57;9.38;;;16.90;99.90;;;;;;4915324;29;20047;-65
2023/09/04 06:15:51;;;;;;;10.52;9.20;;;17.10;1.00;;;;;;4897010;29;20449;-65
2023/09/04 06:18:16;;;;;;;11.05;9.38;;;17.20;1.00;;;;;;4897260;29;20199;-65
2023/09/04 06:20:43;;;;;;;11.13;7.88;;;17.40;99.90;;;;;;4913253;29;20187;-65
2023/09/04 06:23:08;;;;;;;10.60;7.57;;;17.60;99.90;;;;;;4896570;29;20160;-65
2023/09/04 06:25:38;;;;;;;8.05;7.35;;;17.70;99.90;;;;;;4914446;29;20059;-65
2023/09/04 06:28:05;;;;;;;6.97;6.28;;;18.10;99.90;;;;;;4896781;29;20043;-65
2023/09/04 06:30:31;;;;;;;7.35;6.55;;;18.50;99.90;;;;;;4914176;29;20467;-65
2023/09/04 06:32:57;;;;;;;9.32;6.63;;;18.70;99.90;;;;;;4916726;29;20130;-64
2023/09/04 06:35:23;;;;;;;6.15;5.35;;;18.60;99.90;;;;;;4916580;29;20055;-65
2023/09/04 06:37:50;;;;;;;6.25;5.35;;;19.00;94.50;;;;;;4900061;29;20051;-65
2023/09/04 06:40:16;;;;;;;7.70;4.90;;;19.20;47.90;;;;;;4916608;29;20399;-65
2023/09/04 06:42:41;;;;;;;4.85;4.38;;;19.30;1.00;;;;;;4918903;29;20079;-66
2023/09/04 06:45:07;;;;;;;4.57;4.18;;;19.20;1.00;;;;;;4900637;29;20720;-66
2023/09/04 06:47:33;;;;;;;4.63;4.22;;;19.20;99.90;;;;;;4917660;29;20155;-66
2023/09/04 06:50:00;;;;;;;5.85;4.40;;;19.20;99.90;;;;;;4899366;29;20051;-65
2023/09/04 06:52:26;;;;;;;4.82;4.35;;;19.40;99.90;;;;;;4915905;29;20110;-65
2023/09/04 06:54:52;;;;;;;5.95;3.80;;;19.40;99.90;;;;;;4917313;28;20044;-65
2023/09/04 06:57:17;;;;;;;4.60;4.20;;;19.50;99.90;;;;;;4916050;29;20039;-65
2023/09/04 06:59:43;;;;;;;5.03;4.55;;;19.70;99.90;;;;;;4915932;29;20056;-66
2023/09/04 07:02:09;;;;;;;5.55;4.20;;;19.90;99.90;;;;;;4883884;29;20040;-66
2023/09/04 07:04:35;;;;;;;4.65;4.22;;;20.00;99.90;;;;;;4899534;29;20450;-66
2023/09/04 07:07:00;;;;;;;5.13;4.53;;;20.10;99.90;;;;;;4914665;29;20367;-66
2023/09/04 07:09:26;;;;;;;6.00;4.65;;;20.20;99.90;;;;;;4915060;29;20111;-66
2023/09/04 07:11:52;;;;;;;6.68;4.57;;;20.10;99.90;;;;;;4916234;29;20309;-66
2023/09/04 07:14:18;;;;;;;5.28;4.78;;;20.20;99.90;;;;;;4917941;29;20050;-66
2023/09/04 07:16:43;;;;;;;6.20;4.55;;;20.40;99.90;;;;;;4915097;29;20048;-65
2023/09/04 07:19:09;;;;;;;4.85;4.25;;;20.60;99.90;;;;;;4914483;29;20043;-66
2023/09/04 07:21:36;;;;;;;6.10;4.53;;;20.80;1.00;;;;;;4914321;29;20071;-66
2023/09/04 07:24:03;;;;;;;5.15;4.20;;;21.10;99.90;;;;;;4918210;29;20518;-66
2023/09/04 07:26:29;;;;;;;5.18;4.35;;;21.50;1.00;;;;;;4898447;29;20062;-65
2023/09/04 07:28:55;;;;;;;4.50;3.78;;;21.70;26.80;;;;;;4914042;29;20558;-66
2023/09/04 07:31:21;;;;;;;5.57;4.10;;;21.70;99.90;;;;;;4916200;29;20128;-66
2023/09/04 07:33:48;;;;;;;4.93;4.43;;;22.10;99.90;;;;;;4914340;29;20130;-66
2023/09/04 07:36:13;;;;;;;4.57;4.18;;;22.20;99.90;;;;;;4914172;29;20520;-66
2023/09/04 07:38:40;;;;;;;4.85;4.22;;;22.10;99.90;;;;;;4917033;29;20199;-65
2023/09/04 07:41:06;;;;;;;7.65;4.20;;;22.50;99.90;;;;;;4915262;29;20043;-65
2023/09/04 07:43:33;;;;;;;4.47;3.90;;;22.90;99.90;;;;;;4914012;29;20506;-64
2023/09/04 07:46:00;;;;;;;3.50;3.20;;;23.10;92.40;;;;;;4898772;29;20275;-65
2023/09/04 07:48:26;;;;;;;5.35;3.63;;;23.10;58.50;;;;;;4914573;29;20066;-65
2023/09/04 07:50:52;;;;;;;6.43;4.40;;;23.10;28.60;;;;;;4924149;29;20052;-65
2023/09/04 07:53:19;;;;;;;6.45;5.75;;;23.00;44.10;;;;;;4926706;29;20048;-64
2023/09/04 07:55:45;;;;;;;7.03;4.95;;;22.80;40.90;;;;;;4927512;29;20047;-64
2023/09/04 07:58:11;;;;;;;5.40;4.90;;;22.60;52.30;;;;;;4909760;29;20051;-65
2023/09/04 08:00:41;;;;;;;6.70;4.78;;;22.60;65.50;;;;;;4927637;29;20040;-65
2023/09/04 08:03:07;;;;;;;7.20;5.95;;;22.70;69.90;;;;;;4924673;29;20126;-66
2023/09/04 08:05:33;;;;;;;8.00;6.45;;;22.80;61.60;;;;;;4924145;29;20274;-65
2023/09/04 08:07:59;;;;;;;9.45;5.45;;;23.00;48.80;;;;;;4923517;29;20039;-67
2023/09/04 08:10:25;;;;;;;5.72;5.10;;;23.00;57.30;;;;;;4907993;29;20039;-66
2023/09/04 08:12:50;;;;;;;4.97;3.90;;;23.10;43.50;;;;;;4923591;29;20052;-65
2023/09/04 08:15:16;;;;;;;4.05;3.67;;;23.30;36.40;;;;;;4928246;29;20035;-65
2023/09/04 08:17:43;;;;;;;3.17;1.50;;;23.60;31.00;;;;;;4927478;29;20074;-66
2023/09/04 08:20:10;;;;;;;3.45;1.60;;;23.70;5.30;;;;;;4910698;29;20047;-65
2023/09/04 08:22:36;;;;;;;2.00;1.67;;;23.80;1.00;;;;;;4910743;29;20075;-64
2023/09/04 08:25:01;;;;;;;2.63;1.35;;;24.10;1.00;;;;;;4927017;29;20074;-66
2023/09/04 08:27:27;;;;;;;3.33;1.40;;;24.20;1.00;;;;;;4911414;29;20055;-65
2023/09/04 08:29:53;;;;;;;2.70;1.50;;;24.00;1.00;;;;;;4926576;29;20043;-66
2023/09/04 08:32:19;;;;;;;3.25;1.15;;;24.10;1.00;;;;;;4926836;29;20346;-64
2023/09/04 08:34:45;;;;;;;2.90;1.40;;;24.00;1.00;;;;;;4910150;29;20470;-64
2023/09/04 08:37:11;;;;;;;1.90;1.00;;;24.10;1.00;;;;;;4928154;29;20557;-66
2023/09/04 08:39:37;;;;;;;3.63;1.40;;;24.00;1.00;;;;;;4911255;29;20035;-66
2023/09/04 08:42:07;;;;;;;1.70;1.00;;;24.10;1.00;;;;;;4927453;29;20414;-66
2023/09/04 08:44:36;;;;;;;1.90;0.90;;;24.20;1.00;;;;;;4927845;29;20536;-66
2023/09/04 08:47:04;;;;;;;2.50;1.05;;;24.30;1.00;;;;;;4928918;29;20078;-66
2023/09/04 08:49:29;;;;;;;2.40;1.08;;;24.30;1.00;;;;;;4927574;29;20043;-66
2023/09/04 08:51:56;;;;;;;3.00;0.82;;;24.50;1.00;;;;;;4926403;29;20470;-66
2023/09/04 08:54:22;;;;;;;2.00;1.10;;;24.50;1.00;;;;;;4926868;29;20122;-66
2023/09/04 08:56:48;;;;;;;2.28;0.77;;;24.70;1.00;;;;;;4926690;29;20059;-67
2023/09/04 08:59:13;;;;;;;2.08;0.90;;;24.80;1.00;;;;;;4927969;29;20043;-66
2023/09/04 09:01:41;;;;;;;2.85;0.73;;;24.80;1.00;;;;;;4928904;29;20102;-66
2023/09/04 09:04:08;;;;;;;2.03;0.90;;;25.00;1.00;;;;;;4910567;29;20086;-66
2023/09/04 09:06:35;;;;;;;2.10;1.05;;;25.10;1.00;;;;;;4927690;29;20039;-66
2023/09/04 09:09:02;;;;;;;3.90;2.17;;;25.20;1.00;;;;;;4926929;29;20542;-66
2023/09/04 09:11:28;;;;;;;3.05;1.67;;;25.20;1.00;;;;;;4927209;29;20054;-66
2023/09/04 09:13:54;;;;;;;2.53;1.80;;;24.90;1.00;;;;;;4910512;29;20083;-67
2023/09/04 09:16:20;;;;;;;3.28;1.90;;;24.50;1.00;;;;;;4927968;29;20043;-66
2023/09/04 09:18:47;;;;;;;2.42;1.55;;;24.40;1.00;;;;;;4930042;29;20111;-66
2023/09/04 09:21:30;;;;;;;3.15;2.00;;;24.50;1.00;;;;;;4910743;29;20048;-66
2023/09/04 09:24:09;;;;;;;3.33;1.42;;;25.10;1.00;;;;;;4926288;29;20495;-67
2023/09/04 09:26:38;;;;;;;2.35;0.93;;;25.00;1.00;;;;;;4928299;29;20054;-65
2023/09/04 09:29:04;;;;;;;2.38;1.02;;;25.00;1.00;;;;;;4912632;29;20557;-65
2023/09/04 09:31:30;;;;;;;2.97;1.30;;;25.00;1.00;;;;;;4926264;29;20039;-66
2023/09/04 09:33:56;;;;;;;2.25;1.15;;;25.00;1.00;;;;;;4928689;29;20057;-65
2023/09/04 09:36:23;;;;;;;2.45;1.55;;;24.90;1.00;;;;;;4909920;29;20047;-65
2023/09/04 09:38:48;;;;;;;4.25;1.80;;;24.80;1.00;;;;;;4909544;29;20062;-65
2023/09/04 09:41:14;;;;;;;2.75;1.90;;;24.90;1.00;;;;;;4925963;29;20043;-66
2023/09/04 09:43:41;;;;;;;3.85;1.70;;;25.20;1.00;;;;;;4926104;29;20130;-64
2023/09/04 09:46:08;;;;;;;2.47;1.25;;;25.10;1.00;;;;;;4926520;29;20487;-65
2023/09/04 09:48:36;;;;;;;1.52;1.10;;;25.00;1.00;;;;;;4925893;29;20047;-68
2023/09/04 09:51:03;;;;;;;1.88;0.70;;;25.30;1.00;;;;;;4911446;29;20445;-65
2023/09/04 09:53:44;;;;;;;3.45;1.30;;;25.60;1.00;;;;;;4926736;29;20056;-64
2023/09/04 09:56:12;;;;;;;3.40;1.15;;;25.60;1.00;;;;;;4942268;28;20050;-65
2023/09/04 09:58:39;;;;;;;1.98;1.40;;;26.00;1.00;;;;;;4926290;29;20047;-65
2023/09/04 10:01:06;;;;;;;1.30;0.90;;;25.80;1.00;;;;;;4911932;29;20043;-65
2023/09/04 10:03:33;;;;;;;3.53;1.00;;;25.80;1.00;;;;;;4926935;28;20051;-65
2023/09/04 10:06:04;;;;;;;2.67;0.98;;;25.50;1.00;;;;;;4912400;29;20052;-66
2023/09/04 10:08:37;;;;;;;2.38;1.40;;;25.60;1.00;;;;;;4928913;29;20166;-65
2023/09/04 10:11:10;;;;;;;3.08;0.90;;;25.60;1.00;;;;;;4928927;29;20048;-66
2023/09/04 10:13:44;;;;;;;2.72;0.95;;;25.60;1.00;;;;;;4928869;29;20051;-66
2023/09/04 10:16:15;;;;;;;1.52;0.80;;;26.00;1.00;;;;;;4930395;29;20525;-66
2023/09/04 10:18:46;;;;;;;2.70;0.90;;;26.00;1.00;;;;;;4913178;29;20423;-66
2023/09/04 10:21:16;;;;;;;3.92;1.10;;;26.10;1.00;;;;;;4928600;29;20583;-66
2023/09/04 10:23:49;;;;;;;4.63;1.05;;;26.30;1.00;;;;;;4928430;29;20051;-64
2023/09/04 10:26:35;;;;;;;1.88;1.10;;;26.20;1.00;;;;;;4943856;28;20423;-65
2023/09/04 10:29:10;;;;;;;2.95;1.40;;;26.50;1.00;;;;;;4931409;28;20047;-64
2023/09/04 10:31:37;;;;;;;2.58;1.25;;;26.30;1.00;;;;;;4929300;29;20471;-66
2023/09/04 10:34:03;;;;;;;2.50;0.90;;;26.50;1.00;;;;;;4930303;29;20047;-65
2023/09/04 10:36:30;;;;;;;1.95;1.00;;;26.80;1.00;;;;;;4931843;29;20127;-66
2023/09/04 10:38:58;;;;;;;1.90;0.82;;;27.20;1.00;;;;;;4928487;29;20052;-65
2023/09/04 10:41:26;;;;;;;2.40;0.77;;;27.30;1.00;;;;;;4931328;29;20469;-66
2023/09/04 10:43:52;;;;;;;2.63;0.80;;;27.60;1.00;;;;;;4928116;29;20043;-66
2023/09/04 10:46:17;;;;;;;1.10;0.60;;;27.70;1.00;;;;;;4928935;29;20763;-65
2023/09/04 10:48:45;;;;;;;1.45;0.63;;;27.80;1.00;;;;;;4927779;29;20118;-66
2023/09/04 10:51:33;;;;;;;2.22;0.65;;;27.90;1.00;;;;;;4912975;29;20118;-67
2023/09/04 10:54:12;;;;;;;3.67;0.60;;;27.60;1.00;;;;;;4928022;29;20147;-66
2023/09/04 10:56:57;;;;;;;3.63;0.90;;;27.60;1.00;;;;;;4928489;29;20534;-66
2023/09/04 10:59:24;;;;;;;1.92;1.17;;;27.40;1.00;;;;;;4927359;29;20458;-66
2023/09/04 11:01:50;;;;;;;2.28;1.00;;;27.40;1.00;;;;;;4927682;29;20051;-66
2023/09/04 11:04:43;;;;;;;2.50;1.42;;;27.40;1.00;;;;;;4929651;29;20443;-65
2023/09/04 11:07:21;;;;;;;3.13;0.90;;;27.60;1.00;;;;;;4943232;29;20063;-65
2023/09/04 11:10:13;;;;;;;2.08;0.70;;;27.80;1.00;;;;;;4912283;29;20046;-67
2023/09/04 11:12:40;;;;;;;2.28;0.50;;;27.90;1.00;;;;;;4908393;29;20052;-66
2023/09/04 11:15:15;;;;;;;0.93;0.60;;;28.10;1.00;;;;;;4927250;29;20047;-66
2023/09/04 11:17:45;;;;;;;2.85;0.65;;;27.90;1.00;;;;;;4929105;29;20463;-67
2023/09/04 11:20:14;;;;;;;2.22;0.60;;;27.80;1.00;;;;;;4927042;29;20040;-66
2023/09/04 11:22:47;;;;;;;2.35;0.90;;;27.80;1.00;;;;;;4929245;29;20042;-65
2023/09/04 11:25:17;;;;;;;2.30;1.00;;;28.00;1.00;;;;;;4927288;29;20148;-67
2023/09/04 11:27:44;;;;;;;2.88;0.80;;;28.30;1.00;;;;;;4926190;29;20074;-66
2023/09/04 11:30:10;;;;;;;2.08;1.20;;;28.40;1.00;;;;;;4910022;29;20044;-67
2023/09/04 11:32:38;;;;;;;2.00;0.90;;;28.50;1.00;;;;;;4926419;29;20040;-66
2023/09/04 11:35:04;;;;;;;1.30;0.70;;;28.30;1.00;;;;;;4926431;29;20040;-66
2023/09/04 11:37:32;;;;;;;2.55;0.88;;;28.10;1.00;;;;;;4927055;29;20039;-66
2023/09/04 11:40:00;;;;;;;2.45;0.90;;;28.10;1.00;;;;;;4926069;29;20055;-66
2023/09/04 11:42:29;;;;;;;1.65;0.90;;;28.00;1.00;;;;;;4911224;29;20127;-66
2023/09/04 11:44:55;;;;;;;1.73;0.70;;;28.00;1.00;;;;;;4929105;29;20055;-66
2023/09/04 11:47:22;;;;;;;1.10;0.70;;;27.80;1.00;;;;;;4926236;29;20391;-66
2023/09/04 11:49:49;;;;;;;2.60;0.85;;;27.80;1.00;;;;;;4929076;29;20043;-66
2023/09/04 11:52:18;;;;;;;1.83;0.80;;;27.90;1.00;;;;;;4926440;29;20039;-66
2023/09/04 11:54:44;;;;;;;1.58;0.80;;;27.70;1.00;;;;;;4910902;29;20055;-66
2023/09/04 11:57:11;;;;;;;4.00;0.77;;;27.60;1.00;;;;;;4926662;29;20052;-66
2023/09/04 11:59:38;;;;;;;1.45;0.70;;;27.60;1.00;;;;;;4925901;29;20035;-67
2023/09/04 12:02:05;;;;;;;7.78;2.05;;;27.40;1.00;;;;;;4928730;29;20754;-67
2023/09/04 12:04:32;;;;;;;7.22;2.22;;;27.50;1.00;;;;;;4925628;29;20044;-67
2023/09/04 12:07:05;;;;;;;1.63;0.75;;;27.50;1.00;;;;;;4927994;29;20039;-67
2023/09/04 12:09:33;;;;;;;2.22;0.63;;;27.60;1.00;;;;;;4925730;29;20123;-67
2023/09/04 12:12:01;;;;;;;2.40;0.63;;;27.50;1.00;;;;;;4895136;29;20565;-66
2023/09/04 12:14:27;;;;;;;1.30;0.70;;;27.50;1.00;;;;;;4927521;28;20067;-66
2023/09/04 12:16:53;;;;;;;1.38;0.80;;;27.50;1.00;;;;;;4927268;29;20070;-66
2023/09/04 12:19:26;;;;;;;1.73;0.70;;;27.50;1.00;;;;;;4915125;29;20039;-67
2023/09/04 12:21:52;;;;;;;1.88;0.70;;;27.70;1.00;;;;;;4915495;29;20393;-67
2023/09/04 12:24:19;;;;;;;1.08;0.52;;;27.80;1.00;;;;;;4900615;29;20572;-67
2023/09/04 12:26:49;;;;;;;1.42;0.55;;;28.20;1.00;;;;;;4913688;29;20297;-67
2023/09/04 12:29:17;;;;;;;1.52;0.60;;;28.10;1.00;;;;;;4897349;29;20415;-67
2023/09/04 12:31:43;;;;;;;2.95;0.70;;;28.40;1.00;;;;;;4914542;29;20453;-67
2023/09/04 12:34:08;;;;;;;8.38;0.90;;;28.40;1.00;;;;;;4918949;29;20039;-67
2023/09/04 12:36:35;;;;;;;1.25;0.50;;;28.30;1.00;;;;;;4913734;29;20452;-67
2023/09/04 12:39:00;;;;;;;3.15;1.48;;;28.40;1.00;;;;;;4913668;29;20122;-67
2023/09/04 12:41:27;;;;;;;1.45;0.70;;;28.00;1.00;;;;;;4914989;29;20556;-68